Portada
METAR-TAF:

METAR-TAF

Aeroports :

Fort Drum, Nova York, Estats Units d'Amèrica

latitud: 44-03N, longitud: 075-44W, altitud: 207 m

Observació

L'informe es va fer fa 38 minuts, a les 03:56 UTC
Vent calma
Temperatura -5°C
Humitat 79%
Pressió 1026 hPa
Visibilitat: 16.1 km
Cel clar

METAR: KGTB 310356Z AUTO 00000KT 10SM CLR M05/M08 A3029 RMK AO2 SLP267 T10481081

Hora: 00:34 (04:34 UTC)

Pronòstic

L'informe es va fer fa 3 hores i 34 minuts, a les 01:00 UTC
Pronòstic vàlid del 31 a les 01 UTC al 01 a les 07 UTC
Vent 6 kt amb direcció variable
Visibilitat 10 km o més
Escasses núvols a una alçada de 3000 ft
Evolucionant progressivament
l' 31 a les 17 UTC al 31 a les 18 UTC
Vent 12 kt del Sud/Sud-Oest
Visibilitat 10 km o més
Cel ennuvolat a una alçada de 3000 ft

TAF: KGTB 310100Z 3101/0107 VRB06KT 9999 FEW030 QNH3021INS BECMG 3117/3118 20012KT 9999 BKN030 650301 QNH3010INS TX04/3119Z TNM06/3105Z

Observacions i pronòstics meteorològics de més de 4000 aeroports (METAR i TAF).

Les estacions disponibles són els punts grocs i vermells al mapa.

Posi el ratolí al punt desitjat per veure el nom de l'estació.

Feu clic per veure les observacions i els pronòstics meteorològics.

Per canviar el mapa: feu clic els botons verds amb una creu de color negre per apropar; al botó verd amb un guió per allunyar la imatge; o en les fletxes verdes per a mapes adjacents.


METAR-TAF: